Airfield :







YOU CAN JOIN US ON...

 
LOGIN :

Register | Disclaimer

   EN    FR    IT 

 









Legend :    VFR   Marginal VFR   IFR   Intensive IFR   Very Intensive IFR
Visi :
Ceiling :
>= 8 km
>= 3000ft
5 to 8 km
1000 to 3000 ft
1500m to 5 km
500 to 1000 ft
800 to 1500m
200 to 500 ft
< 800m
< 200 ft
Symbols :   Thunderstorms  Fog  Heavy snow  Heavy precipitations  Wind > 20 kt






- Airport Elevation : 496 ft
- IATA code : YQX


CYQX - Gander

CURRENT METAR :
  • 051900Z 33012G18KT 3SM -SN SCT004 BKN045 M01/M01 A2928 RMK SF4SC3 /S01/ PRESRR SLP925

EXPIRED METARs :
  • 051850Z CCA 31013G21KT 1SM R13/6000FT/N R03/6000FT/N -SN BKN004 BKN045 M01/M01 A2927 RMK SN5SF1SC1 SLP920
  • 051830Z 31017KT 3/4SM R13/P6000FT/N R03/P6000FT/N -SN OVC004 M01/M01 A2927 RMK FG6SF2 SLP921
  • 051819Z 30014KT 1/2SM R13/4500VP6000FT/U R03/4500VP6000FT/U SN VV004 M01/M01 A2928 RMK SN8 SLP923
  • 051800Z 30010KT 3/8SM R13/4000FT/N R03/4500FT/N SN VV004 M01/M01 A2928 RMK SN8 SLP924
  • 051728Z 34007KT 1/2SM R13/5000VP6000FT/D R03/5500VP6000FT/D SN VV004 M01/M01 A2927 RMK SN8 SLP920
  • 051715Z 35008KT 3/4SM R13/5000VP6000FT/U R03/5500VP6000FT/U -SN OVC004 M01/M01 A2926 RMK SN6SF2 SLP918
  • 051630Z 35008KT 3/8SM R13/3000FT/N R03/2400FT/N SN VV003 M01/M01 A2925 RMK SN8 PRESFR SLP915

TAF AMD TAF CYQX
Valid from the 05 at 19:00 until the 06 at 18:00 UTC


051918Z 0519/0618 29010KT 5SM -SN BKN004 OVC040
TEMPO 0519/0522 P6SM NSW SCT004 BKN040
PROB30 0519/0522 BKN003 OVC040
FM052200 26010KT P6SM FEW006 BKN012
TEMPO 0522/0524 BKN006 OVC012
FM060000 24012KT P6SM BKN015 BKN025
BECMG 0614/0616 25015G25KT RMK NXT FCST BY 060000Z



MET'MAP, your aeronautical weather chart ! - Copyright ORBIFLY December 2007 - Disclaimer

ORBIFLY MET'MAP TEAM :

Programming & Development : Alexandra Zaïnal
Concept & original design : Baudouin d'Aumeries
Assistance for programming : Marc-Olivier Méhu
Technical & hardware support : Manuel Goepfert

Contact : metmap@orbifly.com




SOURCES & CREDITS :

   NOAA